Flight Track Log - Related Links

Times and Time Zones

All times are in EDT time to prevent confusion due to time zone crossing. See the ASQ5941 flight status page for this flight to view local times or setup timezone preferences in your user account.

Time Position Orientation Groundspeed Altitude Reporting Facility
EDT Latitude Longitude Course Direction KTS MPH feet Rate Location/Type
Sun 05:12:00 PM 41.3773 -75.8547 304° West  Level FlightAware Approximate
Sun 05:12:12 PM 41.4717 -75.7381 324° Northwest 236 272 7,300  Level New York Center
Sun 05:13:00 PM 41.4242 -75.9378 315° West  Level FlightAware Approximate
Sun 05:13:12 PM 41.5194 -75.7886 322° Northwest 236 272 9,800  Level New York Center
Sun 05:14:00 PM 41.4724 -76.0243 315° West  Level FlightAware Approximate
Sun 05:14:10 PM 41.5792 -75.8569 319° Northwest 248 285 11,000  Level New York Center
Sun 05:15:00 PM 41.5290 -76.1018 312° West  Level FlightAware Approximate
Sun 05:15:11 PM 41.6047 -75.9419 292° West 262 302 12,500  Level New York Center
Sun 05:16:00 PM 41.6014 -76.1968 306° West  Level FlightAware Approximate
Sun 05:16:13 PM 41.6336 -76.0414 291° West 282 325 14,100  Level New York Center
Sun 05:17:11 PM 41.6639 -76.1519 290° West 292 336 15,900 1,525 Climbing New York Center
Sun 05:18:11 PM 41.6928 -76.2517 291° West 292 336 17,100 1,140 Climbing New York Center
Sun 05:19:12 PM 41.7194 -76.3483 290° West 298 343 18,200 984 Climbing New York Center
Sun 05:20:13 PM 41.7500 -76.4539 291° West 298 343 19,100 1,068 Climbing New York Center
Sun 05:21:10 PM 41.7833 -76.5789 290° West 313 360 20,300 1,160 Climbing New York Center
Sun 05:22:12 PM 41.8153 -76.6931 291° West 319 367 21,400 1,050 Climbing New York Center
Sun 05:23:10 PM 41.8489 -76.8131 291° West 332 382 22,400 1,008 Climbing New York Center
Sun 05:24:11 PM 41.8833 -76.9319 291° West 332 382 23,400 1,140 Climbing Cleveland Center
Sun 05:25:11 PM 41.9117 -77.0392 290° West 319 367 24,700 1,200 Climbing Cleveland Center
Sun 05:26:11 PM 41.9422 -77.1547 290° West 319 367 25,800 650 Climbing Cleveland Center
Sun 05:27:11 PM 41.9769 -77.2731 292° West 324 373 26,000 100 Climbing Cleveland Center
Sun 05:28:11 PM 42.0097 -77.3972 290° West 341 392 26,000  Level Cleveland Center
Sun 05:29:11 PM 42.0425 -77.5269 289° West 352 405 26,000  Level Cleveland Center
Sun 05:30:11 PM 42.0792 -77.6567 291° West 364 419 26,000  Level Cleveland Center
Sun 05:31:11 PM 42.1139 -77.7922 289° West 369 425 26,000  Level Cleveland Center
Sun 05:32:11 PM 42.1506 -77.9364 289° West 375 432 26,000  Level Cleveland Center
Sun 05:33:11 PM 42.1847 -78.0722 289° West 375 432 26,000  Level Cleveland Center
Sun 05:34:11 PM 42.2189 -78.2000 290° West 375 432 26,000  Level Cleveland Center
Sun 05:35:11 PM 42.2528 -78.3306 289° West 375 432 26,000  Level Cleveland Center
Sun 05:36:11 PM 42.2864 -78.4614 289° West 375 432 26,000  Level Cleveland Center
Sun 05:37:11 PM 42.3200 -78.5894 290° West 375 432 26,000  Level Cleveland Center
Sun 05:38:11 PM 42.3536 -78.7203 289° West 375 432 26,000  Level Cleveland Center
Sun 05:39:11 PM 42.3867 -78.8517 289° West 375 432 26,000  Level Cleveland Center
Sun 05:40:11 PM 42.4200 -78.9828 289° West 370 426 26,000  Level Cleveland Center
Sun 05:41:11 PM 42.4508 -79.1172 287° West 375 432 26,000  Level Cleveland Center
Sun 05:42:11 PM 42.4858 -79.2514 290° West 375 432 26,000  Level Cleveland Center
Sun 05:43:11 PM 42.4958 -79.3978 275° West 388 447 26,000  Level Cleveland Center
Sun 05:44:11 PM 42.5056 -79.5328 276° West 388 447 26,000  Level Cleveland Center
Sun 05:45:11 PM 42.5131 -79.6761 274° West 388 447 26,000  Level Cleveland Center
Sun 05:46:11 PM 42.5203 -79.8142 274° West 383 441 26,000  Level Cleveland Center
Sun 05:47:11 PM 42.5253 -79.9606 273° West 383 441 26,000  Level Cleveland Center
Sun 05:48:11 PM 42.5281 -80.1042 272° West 383 441 26,000  Level Cleveland Center
Sun 05:49:11 PM 42.5347 -80.2478 274° West 383 441 26,000  Level Cleveland Center
Sun 05:50:11 PM 42.5392 -80.3917 272° West 383 441 26,000  Level Cleveland Center
Sun 05:51:11 PM 42.5478 -80.5353 275° West 383 441 26,000  Level Cleveland Center
Sun 05:52:11 PM 42.5519 -80.6875 272° West 389 448 26,000  Level Cleveland Center
Sun 05:53:11 PM 42.5578 -80.8256 273° West 383 441 26,000  Level Cleveland Center
Sun 05:54:11 PM 42.5617 -80.9722 272° West 389 448 26,000  Level Cleveland Center
Sun 05:55:11 PM 42.5694 -81.1189 274° West 390 449 26,000  Level Cleveland Center
Sun 05:56:11 PM 42.5728 -81.2711 272° West 395 455 26,000  Level Cleveland Center
Sun 05:57:11 PM 42.5781 -81.4178 273° West 401 461 26,000  Level Cleveland Center
Sun 05:58:11 PM 42.6019 -81.5619 283° West 396 456 26,000  Level Cleveland Center
Sun 06:00:11 PM 42.6492 -81.8394 283° West 396 456 26,000  Level Cleveland Center
Sun 06:01:11 PM 42.6767 -81.9839 285° West 396 456 26,000  Level Cleveland Center
Sun 06:02:11 PM 42.7000 -82.1286 282° West 396 456 26,000  Level Cleveland Center
Sun 06:03:11 PM 42.7250 -82.2733 283° West 396 456 26,000  Level Cleveland Center
Sun 06:04:11 PM 42.7478 -82.4153 282° West 396 456 26,000  Level Cleveland Center
Sun 06:05:11 PM 42.7725 -82.5575 283° West 396 456 26,000  Level Cleveland Center
Sun 06:06:11 PM 42.7972 -82.6997 283° West 396 456 26,000  Level Cleveland Center
Sun 06:07:11 PM 42.8678 -82.8183 309° West 391 450 26,000  Level Cleveland Center
Sun 06:08:11 PM 42.9533 -82.9264 317° Northwest 391 450 26,000  Level Cleveland Center
Sun 06:09:11 PM 42.9733 -83.0661 281° West 376 433 26,000  Level Cleveland Center
Sun 06:10:11 PM 42.9700 -83.2106 268° West 371 427 26,000  Level Cleveland Center
Sun 06:11:11 PM 42.9661 -83.3781 268° West 392 451 26,000  Level Cleveland Center
Sun 06:12:11 PM 42.9667 -83.5256 270° West 392 451 26,000  Level Cleveland Center
Sun 06:13:11 PM 42.9647 -83.6758 269° West 397 457 26,000  Level Cleveland Center
Sun 06:14:11 PM 42.9564 -83.8258 266° West 403 464 26,000  Level Cleveland Center
Sun 06:15:11 PM 42.9439 -83.9728 263° West 403 464 26,000  Level Cleveland Center
Sun 06:17:04 PM 42.9169 -84.2497 263° West 397 457 26,000  Level Chicago Center
Sun 06:18:06 PM 42.9025 -84.4003 263° West 400 460 26,000  Level Chicago Center
Sun 06:19:08 PM 42.8881 -84.5494 263° West 399 459 26,000  Level Chicago Center
Sun 06:20:10 PM 42.8722 -84.7003 262° West 403 464 26,000  Level Chicago Center
Sun 06:22:14 PM 42.8414 -84.9983 262° West 398 458 26,000  Level Chicago Center
Sun 06:23:16 PM 42.8219 -85.1781 262° West 400 460 26,000  Level Chicago Center
Sun 06:24:18 PM 42.8050 -85.3278 261° West 401 461 26,000  Level Chicago Center
Sun 06:25:20 PM 42.7886 -85.4775 262° West 400 460 26,000 -435 Level Chicago Center
Sun 06:26:22 PM 42.7650 -85.6167 257° West 381 438 25,100 -1,008 Descending Chicago Center
Sun 06:27:25 PM 42.7411 -85.7508 256° West 366 421 23,900 -1,248 Descending Chicago Center
Sun 06:28:27 PM 42.7181 -85.8783 256° West 351 404 22,500 -1,403 Descending Chicago Center
Sun 06:29:29 PM 42.6944 -86.0044 256° West 344 396 21,000 -1,210 Descending Chicago Center
Sun 06:30:31 PM 42.6667 -86.1542 256° West 340 391 20,000 -484 Descending Chicago Center
Sun 06:31:33 PM 42.6450 -86.2769 257° West 336 387 20,000 -290 Level Chicago Center
Sun 06:32:35 PM 42.6217 -86.3964 255° West 329 379 19,400 -1,016 Descending Chicago Center
Sun 06:33:37 PM 42.5994 -86.5192 256° West 334 384 17,900 -1,355 Descending Chicago Center
Sun 06:34:39 PM 42.5786 -86.6308 256° West 311 358 16,600 -1,355 Descending Chicago Center
Sun 06:35:41 PM 42.5581 -86.7364 255° West 294 338 15,100 -1,500 Descending Chicago Center
Sun 06:36:43 PM 42.5317 -86.8311 249° West 275 316 13,500 -1,548 Descending Chicago Center
Sun 06:37:45 PM 42.5019 -86.9422 250° West 263 303 11,900 -1,355 Descending Chicago Center
Sun 06:38:47 PM 42.4769 -87.0331 250° West 258 297 10,700 -1,161 Descending Chicago Center
Sun 06:39:49 PM 42.4519 -87.1228 249° West 257 296 9,500 -823 Descending Chicago Center
Sun 06:40:51 PM 42.4222 -87.2122 246° West 261 300 9,000 -242 Descending Chicago Center
Sun 06:41:53 PM 42.3833 -87.2917 236° Southwest 253 291 9,000  Level Chicago Center
Sun 06:42:55 PM 42.3453 -87.3706 237° Southwest 252 290 9,000  Level Chicago Center
Sun 06:43:57 PM 42.3039 -87.4603 238° Southwest 242 278 9,000 -677 Level Chicago Center
Sun 06:44:59 PM 42.2697 -87.5367 239° Southwest 240 276 7,600 -1,403 Descending Chicago Center
Sun 06:46:01 PM 42.2378 -87.6139 241° Southwest 236 272 6,100 -1,306 Descending Chicago Center
Sun 06:47:03 PM 42.2056 -87.6686 232° Southwest 198 228 4,900 -919 Descending Chicago Center
Sun 06:48:05 PM 42.1536 -87.7219 217° Southwest 196 226 4,200 -629 Descending Chicago Center
Sun 06:49:07 PM 42.1131 -87.7697 221° Southwest 195 224 3,600 -793 Descending Chicago Center
Sun 06:50:06 PM 42.0667 -87.8167 217° Southwest 181 208 2,600 -958 Descending Chicago TRACON
Sun 06:51:06 PM 42.0333 -87.8500 217° Southwest 137 158 1,700 -800 Descending Chicago TRACON
Sun 06:52:06 PM 42.0000 -87.8833 217° Southwest 143 165 1,000 -700 Descending Chicago TRACON

Login

Don't have an account? Register now (free) for customized features, flight alerts, and more!